sensor_id;sensor_type;location;lat;lon;timestamp;P1;durP1;ratioP1;P2;durP2;ratioP2
52354;SDS011;38286;51.156;17.038;2023-11-19T00:00:44;62.08;;;25.98;;
52354;SDS011;38286;51.156;17.038;2023-11-19T00:03:30;62.08;;;26.58;;
52354;SDS011;38286;51.156;17.038;2023-11-19T00:05:56;63.38;;;27.33;;
52354;SDS011;38286;51.156;17.038;2023-11-19T00:08:22;64.47;;;28.45;;
52354;SDS011;38286;51.156;17.038;2023-11-19T00:10:50;65.75;;;28.02;;
52354;SDS011;38286;51.156;17.038;2023-11-19T00:13:16;78.70;;;31.42;;
52354;SDS011;38286;51.156;17.038;2023-11-19T00:15:42;76.40;;;30.90;;
52354;SDS011;38286;51.156;17.038;2023-11-19T00:18:08;76.55;;;32.60;;
52354;SDS011;38286;51.156;17.038;2023-11-19T00:20:34;75.25;;;30.88;;
52354;SDS011;38286;51.156;17.038;2023-11-19T00:23:00;69.43;;;30.42;;
52354;SDS011;38286;51.156;17.038;2023-11-19T00:25:28;80.68;;;33.70;;
52354;SDS011;38286;51.156;17.038;2023-11-19T00:27:53;84.00;;;32.15;;
52354;SDS011;38286;51.156;17.038;2023-11-19T00:30:21;80.60;;;33.15;;
52354;SDS011;38286;51.156;17.038;2023-11-19T00:32:47;83.00;;;33.97;;
52354;SDS011;38286;51.156;17.038;2023-11-19T00:35:13;79.43;;;33.60;;
52354;SDS011;38286;51.156;17.038;2023-11-19T00:37:39;86.70;;;34.08;;
52354;SDS011;38286;51.156;17.038;2023-11-19T00:40:05;80.28;;;32.17;;
52354;SDS011;38286;51.156;17.038;2023-11-19T00:42:32;77.47;;;31.42;;
52354;SDS011;38286;51.156;17.038;2023-11-19T00:44:58;81.97;;;32.22;;
52354;SDS011;38286;51.156;17.038;2023-11-19T00:47:24;78.82;;;32.20;;
52354;SDS011;38286;51.156;17.038;2023-11-19T00:49:50;77.47;;;31.75;;
52354;SDS011;38286;51.156;17.038;2023-11-19T00:52:16;84.53;;;31.98;;
52354;SDS011;38286;51.156;17.038;2023-11-19T00:54:42;79.07;;;29.73;;
52354;SDS011;38286;51.156;17.038;2023-11-19T00:57:08;85.53;;;31.02;;
52354;SDS011;38286;51.156;17.038;2023-11-19T00:59:35;74.65;;;30.30;;
52354;SDS011;38286;51.156;17.038;2023-11-19T01:02:00;78.13;;;29.23;;
52354;SDS011;38286;51.156;17.038;2023-11-19T01:04:29;74.28;;;29.40;;
52354;SDS011;38286;51.156;17.038;2023-11-19T01:06:55;74.97;;;29.67;;
52354;SDS011;38286;51.156;17.038;2023-11-19T01:09:21;73.07;;;29.45;;
52354;SDS011;38286;51.156;17.038;2023-11-19T01:11:47;67.88;;;27.42;;
52354;SDS011;38286;51.156;17.038;2023-11-19T01:14:13;71.78;;;27.60;;
52354;SDS011;38286;51.156;17.038;2023-11-19T01:16:39;72.55;;;28.75;;
52354;SDS011;38286;51.156;17.038;2023-11-19T01:19:05;71.38;;;28.77;;
52354;SDS011;38286;51.156;17.038;2023-11-19T01:21:30;75.32;;;28.58;;
52354;SDS011;38286;51.156;17.038;2023-11-19T01:23:57;71.03;;;28.10;;
52354;SDS011;38286;51.156;17.038;2023-11-19T01:26:25;70.85;;;27.63;;
52354;SDS011;38286;51.156;17.038;2023-11-19T01:28:51;67.55;;;28.38;;
52354;SDS011;38286;51.156;17.038;2023-11-19T01:31:18;70.32;;;29.45;;
52354;SDS011;38286;51.156;17.038;2023-11-19T01:33:44;80.50;;;30.20;;
52354;SDS011;38286;51.156;17.038;2023-11-19T01:36:12;74.13;;;29.15;;
52354;SDS011;38286;51.156;17.038;2023-11-19T01:38:39;80.80;;;30.63;;
52354;SDS011;38286;51.156;17.038;2023-11-19T01:41:04;72.65;;;28.15;;
52354;SDS011;38286;51.156;17.038;2023-11-19T01:43:40;75.70;;;27.85;;
52354;SDS011;38286;51.156;17.038;2023-11-19T01:46:08;72.15;;;27.42;;
52354;SDS011;38286;51.156;17.038;2023-11-19T01:48:41;68.10;;;27.13;;
52354;SDS011;38286;51.156;17.038;2023-11-19T01:51:08;69.38;;;27.42;;
52354;SDS011;38286;51.156;17.038;2023-11-19T01:53:35;76.55;;;27.55;;
52354;SDS011;38286;51.156;17.038;2023-11-19T01:56:02;69.30;;;27.10;;
52354;SDS011;38286;51.156;17.038;2023-11-19T01:58:29;64.40;;;26.58;;
52354;SDS011;38286;51.156;17.038;2023-11-19T02:00:56;69.05;;;26.60;;
52354;SDS011;38286;51.156;17.038;2023-11-19T02:03:22;66.40;;;25.80;;
52354;SDS011;38286;51.156;17.038;2023-11-19T02:05:51;67.18;;;26.85;;
52354;SDS011;38286;51.156;17.038;2023-11-19T02:08:18;66.95;;;26.33;;
52354;SDS011;38286;51.156;17.038;2023-11-19T02:10:45;65.97;;;26.08;;
52354;SDS011;38286;51.156;17.038;2023-11-19T02:13:11;69.68;;;26.38;;
52354;SDS011;38286;51.156;17.038;2023-11-19T02:15:39;63.95;;;25.58;;
52354;SDS011;38286;51.156;17.038;2023-11-19T02:18:22;61.53;;;26.02;;
52354;SDS011;38286;51.156;17.038;2023-11-19T02:20:53;60.63;;;25.33;;
52354;SDS011;38286;51.156;17.038;2023-11-19T02:23:20;62.55;;;25.95;;
52354;SDS011;38286;51.156;17.038;2023-11-19T02:25:54;61.78;;;24.60;;
52354;SDS011;38286;51.156;17.038;2023-11-19T02:28:28;54.03;;;23.83;;
52354;SDS011;38286;51.156;17.038;2023-11-19T02:30:54;53.70;;;24.23;;
52354;SDS011;38286;51.156;17.038;2023-11-19T02:33:20;56.75;;;24.15;;
52354;SDS011;38286;51.156;17.038;2023-11-19T02:35:46;51.88;;;23.42;;
52354;SDS011;38286;51.156;17.038;2023-11-19T02:38:12;59.45;;;23.42;;
52354;SDS011;38286;51.156;17.038;2023-11-19T02:40:39;58.38;;;23.35;;
52354;SDS011;38286;51.156;17.038;2023-11-19T02:43:05;60.35;;;23.92;;
52354;SDS011;38286;51.156;17.038;2023-11-19T02:45:31;57.58;;;24.33;;
52354;SDS011;38286;51.156;17.038;2023-11-19T02:47:57;52.38;;;22.55;;
52354;SDS011;38286;51.156;17.038;2023-11-19T02:50:23;55.45;;;23.50;;
52354;SDS011;38286;51.156;17.038;2023-11-19T02:52:55;59.55;;;24.45;;
52354;SDS011;38286;51.156;17.038;2023-11-19T02:55:21;57.95;;;24.73;;
52354;SDS011;38286;51.156;17.038;2023-11-19T02:57:49;53.22;;;24.10;;
52354;SDS011;38286;51.156;17.038;2023-11-19T03:00:16;55.17;;;24.48;;
52354;SDS011;38286;51.156;17.038;2023-11-19T03:02:46;52.92;;;22.98;;
52354;SDS011;38286;51.156;17.038;2023-11-19T03:05:13;55.92;;;24.63;;
52354;SDS011;38286;51.156;17.038;2023-11-19T03:07:43;55.55;;;23.05;;
52354;SDS011;38286;51.156;17.038;2023-11-19T03:10:10;49.25;;;21.77;;
52354;SDS011;38286;51.156;17.038;2023-11-19T03:12:39;53.78;;;22.67;;
52354;SDS011;38286;51.156;17.038;2023-11-19T03:15:06;52.17;;;23.40;;
52354;SDS011;38286;51.156;17.038;2023-11-19T03:17:33;54.67;;;23.80;;
52354;SDS011;38286;51.156;17.038;2023-11-19T03:19:59;52.03;;;23.35;;
52354;SDS011;38286;51.156;17.038;2023-11-19T03:22:26;50.08;;;23.13;;
52354;SDS011;38286;51.156;17.038;2023-11-19T03:24:52;55.03;;;24.02;;
52354;SDS011;38286;51.156;17.038;2023-11-19T03:27:18;61.70;;;23.10;;
52354;SDS011;38286;51.156;17.038;2023-11-19T03:29:44;55.90;;;24.52;;
52354;SDS011;38286;51.156;17.038;2023-11-19T03:32:10;53.28;;;24.55;;
52354;SDS011;38286;51.156;17.038;2023-11-19T03:34:37;56.40;;;23.75;;
52354;SDS011;38286;51.156;17.038;2023-11-19T03:37:03;54.90;;;23.20;;
52354;SDS011;38286;51.156;17.038;2023-11-19T03:39:29;56.33;;;23.45;;
52354;SDS011;38286;51.156;17.038;2023-11-19T03:41:55;54.05;;;24.45;;
52354;SDS011;38286;51.156;17.038;2023-11-19T03:44:20;56.03;;;22.70;;
52354;SDS011;38286;51.156;17.038;2023-11-19T03:46:46;54.90;;;22.40;;
52354;SDS011;38286;51.156;17.038;2023-11-19T03:49:12;53.25;;;22.92;;
52354;SDS011;38286;51.156;17.038;2023-11-19T03:51:38;49.78;;;22.10;;
52354;SDS011;38286;51.156;17.038;2023-11-19T03:54:04;54.85;;;23.58;;
52354;SDS011;38286;51.156;17.038;2023-11-19T03:56:32;50.50;;;22.25;;
52354;SDS011;38286;51.156;17.038;2023-11-19T03:58:58;49.63;;;21.27;;
52354;SDS011;38286;51.156;17.038;2023-11-19T04:01:24;49.78;;;22.17;;
52354;SDS011;38286;51.156;17.038;2023-11-19T04:03:50;48.92;;;21.52;;
52354;SDS011;38286;51.156;17.038;2023-11-19T04:06:16;49.72;;;21.45;;
52354;SDS011;38286;51.156;17.038;2023-11-19T04:08:41;51.50;;;21.77;;
52354;SDS011;38286;51.156;17.038;2023-11-19T04:11:07;47.05;;;21.15;;
52354;SDS011;38286;51.156;17.038;2023-11-19T04:13:34;48.80;;;20.92;;
52354;SDS011;38286;51.156;17.038;2023-11-19T04:16:00;49.95;;;21.63;;
52354;SDS011;38286;51.156;17.038;2023-11-19T04:18:26;50.42;;;20.65;;
52354;SDS011;38286;51.156;17.038;2023-11-19T04:20:52;47.58;;;19.75;;
52354;SDS011;38286;51.156;17.038;2023-11-19T04:23:18;51.33;;;21.63;;
52354;SDS011;38286;51.156;17.038;2023-11-19T04:25:44;46.80;;;20.73;;
52354;SDS011;38286;51.156;17.038;2023-11-19T04:28:10;50.67;;;20.98;;
52354;SDS011;38286;51.156;17.038;2023-11-19T04:30:36;49.35;;;21.30;;
52354;SDS011;38286;51.156;17.038;2023-11-19T04:33:03;47.45;;;20.42;;
52354;SDS011;38286;51.156;17.038;2023-11-19T04:35:29;47.00;;;19.40;;
52354;SDS011;38286;51.156;17.038;2023-11-19T04:37:54;44.15;;;20.00;;
52354;SDS011;38286;51.156;17.038;2023-11-19T04:40:23;46.63;;;20.33;;
52354;SDS011;38286;51.156;17.038;2023-11-19T04:42:49;46.15;;;19.08;;
52354;SDS011;38286;51.156;17.038;2023-11-19T04:45:15;47.22;;;19.23;;
52354;SDS011;38286;51.156;17.038;2023-11-19T04:47:42;43.70;;;19.08;;
52354;SDS011;38286;51.156;17.038;2023-11-19T04:50:08;41.38;;;18.25;;
52354;SDS011;38286;51.156;17.038;2023-11-19T04:52:38;38.85;;;18.17;;
52354;SDS011;38286;51.156;17.038;2023-11-19T04:55:10;39.40;;;17.02;;
52354;SDS011;38286;51.156;17.038;2023-11-19T04:57:37;43.40;;;18.60;;
52354;SDS011;38286;51.156;17.038;2023-11-19T05:00:04;39.22;;;17.15;;
52354;SDS011;38286;51.156;17.038;2023-11-19T05:02:30;40.30;;;18.00;;
52354;SDS011;38286;51.156;17.038;2023-11-19T05:04:56;43.67;;;19.27;;
52354;SDS011;38286;51.156;17.038;2023-11-19T05:07:22;35.40;;;16.63;;
52354;SDS011;38286;51.156;17.038;2023-11-19T05:09:48;39.65;;;18.65;;
52354;SDS011;38286;51.156;17.038;2023-11-19T05:12:14;37.90;;;16.85;;
52354;SDS011;38286;51.156;17.038;2023-11-19T05:14:40;37.80;;;17.23;;
52354;SDS011;38286;51.156;17.038;2023-11-19T05:17:13;36.88;;;16.48;;
52354;SDS011;38286;51.156;17.038;2023-11-19T05:19:39;37.70;;;16.77;;
52354;SDS011;38286;51.156;17.038;2023-11-19T05:22:05;32.92;;;15.88;;
52354;SDS011;38286;51.156;17.038;2023-11-19T05:24:31;38.00;;;16.20;;
52354;SDS011;38286;51.156;17.038;2023-11-19T05:26:57;33.97;;;17.00;;
52354;SDS011;38286;51.156;17.038;2023-11-19T05:29:23;36.95;;;16.15;;
52354;SDS011;38286;51.156;17.038;2023-11-19T05:31:49;38.47;;;16.88;;
52354;SDS011;38286;51.156;17.038;2023-11-19T05:34:15;35.53;;;16.92;;
52354;SDS011;38286;51.156;17.038;2023-11-19T05:36:41;40.42;;;17.45;;
52354;SDS011;38286;51.156;17.038;2023-11-19T05:39:07;36.40;;;17.20;;
52354;SDS011;38286;51.156;17.038;2023-11-19T05:41:33;33.75;;;15.93;;
52354;SDS011;38286;51.156;17.038;2023-11-19T05:44:00;36.08;;;16.25;;
52354;SDS011;38286;51.156;17.038;2023-11-19T05:46:25;37.55;;;16.90;;
52354;SDS011;38286;51.156;17.038;2023-11-19T05:48:52;35.58;;;15.55;;
52354;SDS011;38286;51.156;17.038;2023-11-19T05:51:18;32.63;;;15.90;;
52354;SDS011;38286;51.156;17.038;2023-11-19T05:53:45;34.05;;;15.23;;
52354;SDS011;38286;51.156;17.038;2023-11-19T05:56:15;34.05;;;16.42;;
52354;SDS011;38286;51.156;17.038;2023-11-19T05:58:47;34.65;;;16.33;;
52354;SDS011;38286;51.156;17.038;2023-11-19T06:01:14;35.67;;;15.55;;
52354;SDS011;38286;51.156;17.038;2023-11-19T06:03:40;34.97;;;15.25;;
52354;SDS011;38286;51.156;17.038;2023-11-19T06:06:08;36.63;;;15.07;;
52354;SDS011;38286;51.156;17.038;2023-11-19T06:08:35;34.15;;;14.80;;
52354;SDS011;38286;51.156;17.038;2023-11-19T06:11:00;29.05;;;14.07;;
52354;SDS011;38286;51.156;17.038;2023-11-19T06:13:27;30.23;;;14.00;;
52354;SDS011;38286;51.156;17.038;2023-11-19T06:15:52;31.15;;;14.30;;
52354;SDS011;38286;51.156;17.038;2023-11-19T06:18:18;29.17;;;14.60;;
52354;SDS011;38286;51.156;17.038;2023-11-19T06:20:48;31.27;;;14.50;;
52354;SDS011;38286;51.156;17.038;2023-11-19T06:23:15;32.95;;;14.30;;
52354;SDS011;38286;51.156;17.038;2023-11-19T06:25:41;27.90;;;13.80;;
52354;SDS011;38286;51.156;17.038;2023-11-19T06:28:07;28.90;;;14.35;;
52354;SDS011;38286;51.156;17.038;2023-11-19T06:30:32;26.92;;;13.90;;
52354;SDS011;38286;51.156;17.038;2023-11-19T06:32:58;30.10;;;14.40;;
52354;SDS011;38286;51.156;17.038;2023-11-19T06:35:25;29.10;;;14.32;;
52354;SDS011;38286;51.156;17.038;2023-11-19T06:37:51;31.38;;;14.18;;
52354;SDS011;38286;51.156;17.038;2023-11-19T06:40:17;32.28;;;14.45;;
52354;SDS011;38286;51.156;17.038;2023-11-19T06:42:43;30.77;;;14.35;;
52354;SDS011;38286;51.156;17.038;2023-11-19T06:45:08;31.70;;;13.88;;
52354;SDS011;38286;51.156;17.038;2023-11-19T06:47:35;29.65;;;13.57;;
52354;SDS011;38286;51.156;17.038;2023-11-19T06:50:00;32.75;;;14.35;;
52354;SDS011;38286;51.156;17.038;2023-11-19T06:52:27;28.23;;;13.75;;
52354;SDS011;38286;51.156;17.038;2023-11-19T06:54:52;30.30;;;14.82;;
52354;SDS011;38286;51.156;17.038;2023-11-19T06:57:18;27.15;;;13.38;;
52354;SDS011;38286;51.156;17.038;2023-11-19T06:59:45;30.92;;;14.05;;
52354;SDS011;38286;51.156;17.038;2023-11-19T07:02:11;26.90;;;12.95;;
52354;SDS011;38286;51.156;17.038;2023-11-19T07:04:37;22.48;;;11.70;;
52354;SDS011;38286;51.156;17.038;2023-11-19T07:07:03;23.77;;;11.98;;
52354;SDS011;38286;51.156;17.038;2023-11-19T07:09:30;24.90;;;12.45;;
52354;SDS011;38286;51.156;17.038;2023-11-19T07:11:56;24.20;;;12.02;;
52354;SDS011;38286;51.156;17.038;2023-11-19T07:14:22;26.33;;;12.57;;
52354;SDS011;38286;51.156;17.038;2023-11-19T07:16:49;25.65;;;13.10;;
52354;SDS011;38286;51.156;17.038;2023-11-19T07:19:15;23.95;;;12.45;;
52354;SDS011;38286;51.156;17.038;2023-11-19T07:21:41;24.08;;;12.02;;
52354;SDS011;38286;51.156;17.038;2023-11-19T07:24:12;24.15;;;12.45;;
52354;SDS011;38286;51.156;17.038;2023-11-19T07:26:45;22.08;;;11.32;;
52354;SDS011;38286;51.156;17.038;2023-11-19T07:29:13;22.05;;;12.30;;
52354;SDS011;38286;51.156;17.038;2023-11-19T07:31:40;22.67;;;11.10;;
52354;SDS011;38286;51.156;17.038;2023-11-19T07:34:06;21.67;;;11.68;;
52354;SDS011;38286;51.156;17.038;2023-11-19T07:36:34;20.80;;;11.20;;
52354;SDS011;38286;51.156;17.038;2023-11-19T07:39:01;21.63;;;12.40;;
52354;SDS011;38286;51.156;17.038;2023-11-19T07:41:27;20.20;;;10.73;;
52354;SDS011;38286;51.156;17.038;2023-11-19T07:43:54;24.08;;;12.15;;
52354;SDS011;38286;51.156;17.038;2023-11-19T07:46:20;21.17;;;10.93;;
52354;SDS011;38286;51.156;17.038;2023-11-19T07:48:46;22.15;;;11.52;;
52354;SDS011;38286;51.156;17.038;2023-11-19T07:51:15;21.95;;;11.30;;
52354;SDS011;38286;51.156;17.038;2023-11-19T07:53:41;21.85;;;12.27;;
52354;SDS011;38286;51.156;17.038;2023-11-19T07:56:07;25.05;;;12.65;;
52354;SDS011;38286;51.156;17.038;2023-11-19T07:58:34;22.30;;;11.55;;
52354;SDS011;38286;51.156;17.038;2023-11-19T08:01:00;23.85;;;12.15;;
52354;SDS011;38286;51.156;17.038;2023-11-19T08:03:27;21.50;;;11.60;;
52354;SDS011;38286;51.156;17.038;2023-11-19T08:05:56;23.38;;;12.30;;
52354;SDS011;38286;51.156;17.038;2023-11-19T08:08:22;24.73;;;12.95;;
52354;SDS011;38286;51.156;17.038;2023-11-19T08:10:48;26.70;;;12.00;;
52354;SDS011;38286;51.156;17.038;2023-11-19T08:13:17;23.85;;;11.98;;
52354;SDS011;38286;51.156;17.038;2023-11-19T08:15:43;25.08;;;12.75;;
52354;SDS011;38286;51.156;17.038;2023-11-19T08:18:10;21.92;;;10.88;;
52354;SDS011;38286;51.156;17.038;2023-11-19T08:20:36;21.55;;;10.48;;
52354;SDS011;38286;51.156;17.038;2023-11-19T08:23:02;20.30;;;10.73;;
52354;SDS011;38286;51.156;17.038;2023-11-19T08:25:29;20.38;;;10.75;;
52354;SDS011;38286;51.156;17.038;2023-11-19T08:27:55;21.30;;;11.73;;
52354;SDS011;38286;51.156;17.038;2023-11-19T08:30:21;24.20;;;11.32;;
52354;SDS011;38286;51.156;17.038;2023-11-19T08:32:46;25.52;;;12.27;;
52354;SDS011;38286;51.156;17.038;2023-11-19T08:35:13;25.05;;;13.23;;
52354;SDS011;38286;51.156;17.038;2023-11-19T08:37:38;28.60;;;12.73;;
52354;SDS011;38286;51.156;17.038;2023-11-19T08:40:05;29.00;;;13.40;;
52354;SDS011;38286;51.156;17.038;2023-11-19T08:42:32;23.15;;;12.25;;
52354;SDS011;38286;51.156;17.038;2023-11-19T08:44:58;29.15;;;13.50;;
52354;SDS011;38286;51.156;17.038;2023-11-19T08:47:24;28.13;;;13.80;;
52354;SDS011;38286;51.156;17.038;2023-11-19T08:49:51;28.63;;;13.65;;
52354;SDS011;38286;51.156;17.038;2023-11-19T08:52:20;29.15;;;13.10;;
52354;SDS011;38286;51.156;17.038;2023-11-19T08:54:46;30.20;;;13.52;;
52354;SDS011;38286;51.156;17.038;2023-11-19T08:57:12;31.92;;;14.75;;
52354;SDS011;38286;51.156;17.038;2023-11-19T08:59:38;34.47;;;15.13;;
52354;SDS011;38286;51.156;17.038;2023-11-19T09:02:05;35.33;;;15.07;;
52354;SDS011;38286;51.156;17.038;2023-11-19T09:04:31;38.35;;;15.43;;
52354;SDS011;38286;51.156;17.038;2023-11-19T09:06:59;37.20;;;15.02;;
52354;SDS011;38286;51.156;17.038;2023-11-19T09:09:25;34.08;;;15.35;;
52354;SDS011;38286;51.156;17.038;2023-11-19T09:11:51;34.58;;;15.57;;
52354;SDS011;38286;51.156;17.038;2023-11-19T09:14:17;35.85;;;15.02;;
52354;SDS011;38286;51.156;17.038;2023-11-19T09:16:51;32.75;;;15.35;;
52354;SDS011;38286;51.156;17.038;2023-11-19T09:19:18;38.22;;;15.75;;
52354;SDS011;38286;51.156;17.038;2023-11-19T09:21:44;31.83;;;14.80;;
52354;SDS011;38286;51.156;17.038;2023-11-19T09:24:10;31.75;;;14.18;;
52354;SDS011;38286;51.156;17.038;2023-11-19T09:26:35;35.00;;;14.57;;
52354;SDS011;38286;51.156;17.038;2023-11-19T09:29:02;34.10;;;15.10;;
52354;SDS011;38286;51.156;17.038;2023-11-19T09:31:27;36.53;;;15.00;;
52354;SDS011;38286;51.156;17.038;2023-11-19T09:33:54;33.38;;;14.45;;
52354;SDS011;38286;51.156;17.038;2023-11-19T09:36:19;29.70;;;13.63;;
52354;SDS011;38286;51.156;17.038;2023-11-19T09:38:45;35.42;;;14.98;;
52354;SDS011;38286;51.156;17.038;2023-11-19T09:41:11;28.92;;;14.35;;
52354;SDS011;38286;51.156;17.038;2023-11-19T09:43:39;29.20;;;14.07;;
52354;SDS011;38286;51.156;17.038;2023-11-19T09:46:05;32.33;;;15.18;;
52354;SDS011;38286;51.156;17.038;2023-11-19T09:48:33;28.67;;;14.43;;
52354;SDS011;38286;51.156;17.038;2023-11-19T09:51:00;34.72;;;16.33;;
52354;SDS011;38286;51.156;17.038;2023-11-19T09:53:27;30.65;;;14.23;;
52354;SDS011;38286;51.156;17.038;2023-11-19T09:55:53;32.05;;;15.60;;
52354;SDS011;38286;51.156;17.038;2023-11-19T09:58:21;31.48;;;15.13;;
52354;SDS011;38286;51.156;17.038;2023-11-19T10:00:47;28.95;;;13.77;;
52354;SDS011;38286;51.156;17.038;2023-11-19T10:03:14;33.20;;;15.30;;
52354;SDS011;38286;51.156;17.038;2023-11-19T10:05:40;31.52;;;14.80;;
52354;SDS011;38286;51.156;17.038;2023-11-19T10:08:06;29.60;;;14.00;;
52354;SDS011;38286;51.156;17.038;2023-11-19T10:10:33;28.88;;;14.13;;
52354;SDS011;38286;51.156;17.038;2023-11-19T10:13:00;29.17;;;13.70;;
52354;SDS011;38286;51.156;17.038;2023-11-19T10:15:26;28.95;;;13.18;;
52354;SDS011;38286;51.156;17.038;2023-11-19T10:17:56;31.83;;;14.40;;
52354;SDS011;38286;51.156;17.038;2023-11-19T10:20:22;32.83;;;15.43;;
52354;SDS011;38286;51.156;17.038;2023-11-19T10:22:52;30.40;;;15.52;;
52354;SDS011;38286;51.156;17.038;2023-11-19T10:25:23;31.63;;;15.05;;
52354;SDS011;38286;51.156;17.038;2023-11-19T10:27:53;31.98;;;15.75;;
52354;SDS011;38286;51.156;17.038;2023-11-19T10:30:21;30.60;;;14.32;;
52354;SDS011;38286;51.156;17.038;2023-11-19T10:35:54;29.23;;;14.45;;
52354;SDS011;38286;51.156;17.038;2023-11-19T10:38:24;29.10;;;14.30;;
52354;SDS011;38286;51.156;17.038;2023-11-19T10:40:51;25.42;;;12.85;;
52354;SDS011;38286;51.156;17.038;2023-11-19T10:43:17;29.83;;;13.82;;
52354;SDS011;38286;51.156;17.038;2023-11-19T10:45:50;29.42;;;14.63;;
52354;SDS011;38286;51.156;17.038;2023-11-19T10:48:16;29.38;;;14.75;;
52354;SDS011;38286;51.156;17.038;2023-11-19T10:50:43;25.25;;;13.68;;
52354;SDS011;38286;51.156;17.038;2023-11-19T10:53:11;32.55;;;14.68;;
52354;SDS011;38286;51.156;17.038;2023-11-19T10:55:41;26.58;;;13.57;;
52354;SDS011;38286;51.156;17.038;2023-11-19T10:58:10;26.33;;;13.38;;
52354;SDS011;38286;51.156;17.038;2023-11-19T11:00:47;28.83;;;14.02;;
52354;SDS011;38286;51.156;17.038;2023-11-19T11:03:21;29.75;;;14.80;;
52354;SDS011;38286;51.156;17.038;2023-11-19T11:05:51;30.45;;;14.43;;
52354;SDS011;38286;51.156;17.038;2023-11-19T11:08:18;29.40;;;14.27;;
52354;SDS011;38286;51.156;17.038;2023-11-19T11:10:49;27.58;;;14.32;;
52354;SDS011;38286;51.156;17.038;2023-11-19T11:13:22;27.90;;;14.65;;
52354;SDS011;38286;51.156;17.038;2023-11-19T11:15:49;29.63;;;14.50;;
52354;SDS011;38286;51.156;17.038;2023-11-19T11:18:16;32.05;;;16.38;;
52354;SDS011;38286;51.156;17.038;2023-11-19T11:20:46;29.67;;;14.23;;
52354;SDS011;38286;51.156;17.038;2023-11-19T11:31:45;25.13;;;13.77;;
52354;SDS011;38286;51.156;17.038;2023-11-19T11:37:26;24.23;;;13.10;;
52354;SDS011;38286;51.156;17.038;2023-11-19T11:39:57;21.48;;;11.85;;
52354;SDS011;38286;51.156;17.038;2023-11-19T11:45:05;15.52;;;8.75;;
52354;SDS011;38286;51.156;17.038;2023-11-19T11:50:10;15.93;;;9.10;;
52354;SDS011;38286;51.156;17.038;2023-11-19T11:55:24;14.77;;;8.93;;
52354;SDS011;38286;51.156;17.038;2023-11-19T11:57:51;16.42;;;9.27;;
52354;SDS011;38286;51.156;17.038;2023-11-19T12:03:02;20.55;;;11.18;;
52354;SDS011;38286;51.156;17.038;2023-11-19T12:05:29;21.17;;;10.88;;
52354;SDS011;38286;51.156;17.038;2023-11-19T12:07:57;21.02;;;11.65;;
52354;SDS011;38286;51.156;17.038;2023-11-19T12:10:28;19.60;;;11.70;;
52354;SDS011;38286;51.156;17.038;2023-11-19T12:13:00;19.83;;;10.68;;
52354;SDS011;38286;51.156;17.038;2023-11-19T12:15:26;18.52;;;10.23;;
52354;SDS011;38286;51.156;17.038;2023-11-19T12:17:53;13.70;;;8.75;;
52354;SDS011;38286;51.156;17.038;2023-11-19T12:20:21;16.70;;;9.07;;
52354;SDS011;38286;51.156;17.038;2023-11-19T12:22:49;13.88;;;8.25;;
52354;SDS011;38286;51.156;17.038;2023-11-19T12:25:16;15.38;;;8.48;;
52354;SDS011;38286;51.156;17.038;2023-11-19T12:27:49;14.25;;;7.70;;
52354;SDS011;38286;51.156;17.038;2023-11-19T12:32:52;13.90;;;9.10;;
52354;SDS011;38286;51.156;17.038;2023-11-19T12:35:21;14.68;;;8.18;;
52354;SDS011;38286;51.156;17.038;2023-11-19T12:37:48;12.38;;;7.90;;
52354;SDS011;38286;51.156;17.038;2023-11-19T12:40:15;14.45;;;8.50;;
52354;SDS011;38286;51.156;17.038;2023-11-19T12:42:48;16.30;;;8.90;;
52354;SDS011;38286;51.156;17.038;2023-11-19T12:45:15;15.73;;;9.35;;
52354;SDS011;38286;51.156;17.038;2023-11-19T12:48:07;14.18;;;8.55;;
52354;SDS011;38286;51.156;17.038;2023-11-19T12:50:52;14.63;;;8.80;;
52354;SDS011;38286;51.156;17.038;2023-11-19T12:53:19;13.82;;;8.43;;
52354;SDS011;38286;51.156;17.038;2023-11-19T12:55:46;14.02;;;9.07;;
52354;SDS011;38286;51.156;17.038;2023-11-19T12:58:31;16.02;;;8.60;;
52354;SDS011;38286;51.156;17.038;2023-11-19T13:01:07;15.63;;;8.82;;
52354;SDS011;38286;51.156;17.038;2023-11-19T13:03:38;13.00;;;7.43;;
52354;SDS011;38286;51.156;17.038;2023-11-19T13:06:05;15.35;;;8.13;;
52354;SDS011;38286;51.156;17.038;2023-11-19T13:08:37;13.18;;;7.93;;
52354;SDS011;38286;51.156;17.038;2023-11-19T13:11:07;12.45;;;7.70;;
52354;SDS011;38286;51.156;17.038;2023-11-19T13:13:51;14.43;;;7.85;;
52354;SDS011;38286;51.156;17.038;2023-11-19T13:16:25;12.70;;;7.88;;
52354;SDS011;38286;51.156;17.038;2023-11-19T13:18:52;14.00;;;8.65;;
52354;SDS011;38286;51.156;17.038;2023-11-19T13:21:18;18.40;;;9.20;;
52354;SDS011;38286;51.156;17.038;2023-11-19T13:23:44;14.73;;;7.75;;
52354;SDS011;38286;51.156;17.038;2023-11-19T13:26:10;14.85;;;7.00;;
52354;SDS011;38286;51.156;17.038;2023-11-19T13:28:37;16.02;;;8.40;;
52354;SDS011;38286;51.156;17.038;2023-11-19T13:31:03;12.82;;;6.75;;
52354;SDS011;38286;51.156;17.038;2023-11-19T13:33:30;13.30;;;7.30;;
52354;SDS011;38286;51.156;17.038;2023-11-19T13:35:56;14.32;;;7.40;;
52354;SDS011;38286;51.156;17.038;2023-11-19T13:38:22;14.45;;;8.05;;
52354;SDS011;38286;51.156;17.038;2023-11-19T13:40:51;12.52;;;7.53;;
52354;SDS011;38286;51.156;17.038;2023-11-19T13:43:17;13.23;;;7.50;;
52354;SDS011;38286;51.156;17.038;2023-11-19T13:45:43;11.18;;;7.30;;
52354;SDS011;38286;51.156;17.038;2023-11-19T13:48:09;13.88;;;7.80;;
52354;SDS011;38286;51.156;17.038;2023-11-19T13:50:35;13.27;;;7.43;;
52354;SDS011;38286;51.156;17.038;2023-11-19T13:53:01;14.05;;;7.35;;
52354;SDS011;38286;51.156;17.038;2023-11-19T13:55:27;12.20;;;7.05;;
52354;SDS011;38286;51.156;17.038;2023-11-19T13:57:53;13.00;;;7.10;;
52354;SDS011;38286;51.156;17.038;2023-11-19T14:00:19;13.52;;;7.70;;
52354;SDS011;38286;51.156;17.038;2023-11-19T14:02:46;14.20;;;8.18;;
52354;SDS011;38286;51.156;17.038;2023-11-19T14:05:13;15.70;;;9.20;;
52354;SDS011;38286;51.156;17.038;2023-11-19T14:07:40;17.13;;;9.07;;
52354;SDS011;38286;51.156;17.038;2023-11-19T14:10:07;18.98;;;9.50;;
52354;SDS011;38286;51.156;17.038;2023-11-19T14:12:42;17.65;;;10.43;;
52354;SDS011;38286;51.156;17.038;2023-11-19T14:15:09;16.13;;;9.10;;
52354;SDS011;38286;51.156;17.038;2023-11-19T14:17:35;18.23;;;9.77;;
52354;SDS011;38286;51.156;17.038;2023-11-19T14:20:02;19.52;;;10.52;;
52354;SDS011;38286;51.156;17.038;2023-11-19T14:22:48;17.67;;;9.60;;
52354;SDS011;38286;51.156;17.038;2023-11-19T14:25:15;18.17;;;10.35;;
52354;SDS011;38286;51.156;17.038;2023-11-19T14:27:42;19.83;;;10.63;;
52354;SDS011;38286;51.156;17.038;2023-11-19T14:30:09;21.13;;;12.80;;
52354;SDS011;38286;51.156;17.038;2023-11-19T14:32:39;22.52;;;13.80;;
52354;SDS011;38286;51.156;17.038;2023-11-19T14:35:07;25.45;;;13.82;;
52354;SDS011;38286;51.156;17.038;2023-11-19T14:37:34;18.95;;;11.27;;
52354;SDS011;38286;51.156;17.038;2023-11-19T14:40:00;22.13;;;12.70;;